createdAt,value
2018-04-18T00:00:48.107Z,162.60
2018-04-18T00:03:16.906Z,177.70
2018-04-18T00:05:45.478Z,168.80
2018-04-18T00:08:14.509Z,108.50
2018-04-18T00:10:43.072Z,148.97
2018-04-18T00:13:11.404Z,113.37
2018-04-18T00:15:42.191Z,138.00
2018-04-18T00:18:11.035Z,145.70
2018-04-18T00:20:39.737Z,171.77
2018-04-18T00:23:07.849Z,170.43
2018-04-18T00:25:50.015Z,169.23
2018-04-18T00:28:17.849Z,161.10
2018-04-18T00:30:46.384Z,201.80
2018-04-18T00:33:14.671Z,213.20
2018-04-18T00:35:43.374Z,114.20
2018-04-18T00:38:11.967Z,159.77
2018-04-18T00:40:41.562Z,221.13
2018-04-18T00:43:11.137Z,131.17
2018-04-18T00:45:39.100Z,144.50
2018-04-18T00:48:10.169Z,229.13
2018-04-18T00:50:39.136Z,206.97
2018-04-18T00:53:08.085Z,235.03
2018-04-18T00:55:43.579Z,244.07
2018-04-18T00:58:11.552Z,252.43
2018-04-18T01:00:39.743Z,118.53
2018-04-18T01:03:07.659Z,158.23
2018-04-18T01:05:36.218Z,114.53
2018-04-18T01:08:05.119Z,107.07
2018-04-18T01:10:33.288Z,88.30
2018-04-18T01:13:01.915Z,148.33
2018-04-18T01:15:30.356Z,107.30
2018-04-18T01:18:00.716Z,91.37
2018-04-18T01:20:34.053Z,98.37
2018-04-18T01:29:48.969Z,149.63
2018-04-18T01:32:17.087Z,132.77
2018-04-18T01:34:45.333Z,168.67
2018-04-18T01:37:14.368Z,150.10
2018-04-18T01:39:42.334Z,143.80
2018-04-18T01:42:11.664Z,133.97
2018-04-18T01:44:50.066Z,175.23
2018-04-18T01:47:18.566Z,165.87
2018-04-18T01:49:48.124Z,123.37
2018-04-18T01:52:17.224Z,118.67
2018-04-18T01:54:50.638Z,112.33
2018-04-18T02:00:02.781Z,101.03
2018-04-18T02:02:31.092Z,91.23
2018-04-18T02:04:59.037Z,126.43
2018-04-18T02:07:27.050Z,139.83
2018-04-18T02:09:55.248Z,88.17
2018-04-18T02:12:23.609Z,141.23
2018-04-18T02:14:52.188Z,145.17
2018-04-18T02:17:20.187Z,229.77
2018-04-18T02:19:52.060Z,105.43
2018-04-18T02:22:20.121Z,97.57
2018-04-18T02:24:48.335Z,142.93
2018-04-18T02:27:16.239Z,141.00
2018-04-18T02:29:45.309Z,112.97
2018-04-18T02:32:14.176Z,99.63
2018-04-18T02:34:42.091Z,101.87
2018-04-18T02:37:10.083Z,144.90
2018-04-18T02:39:39.637Z,180.10
2018-04-18T02:42:08.333Z,96.20
2018-04-18T02:44:36.245Z,83.43
2018-04-18T02:47:06.292Z,118.60
2018-04-18T02:49:35.348Z,133.53
2018-04-18T02:52:03.287Z,115.17
2018-04-18T02:54:31.268Z,151.10
2018-04-18T02:56:58.940Z,132.27
2018-04-18T02:59:28.373Z,119.87
2018-04-18T03:01:57.912Z,148.63
2018-04-18T03:04:27.035Z,95.33
2018-04-18T03:06:56.575Z,107.47
2018-04-18T03:09:28.037Z,134.00
2018-04-18T03:12:01.298Z,102.27
2018-04-18T03:14:30.579Z,160.43
2018-04-18T03:17:00.354Z,126.43
2018-04-18T03:19:30.398Z,153.83
2018-04-18T03:22:02.453Z,104.17
2018-04-18T03:24:31.429Z,104.27
2018-04-18T03:27:01.973Z,127.30
2018-04-18T03:29:46.895Z,118.83
2018-04-18T03:32:16.086Z,108.03
2018-04-18T03:34:44.843Z,129.70
2018-04-18T03:37:13.672Z,112.23
2018-04-18T03:39:43.040Z,111.27
2018-04-18T03:42:13.204Z,136.27
2018-04-18T03:44:42.191Z,123.10
2018-04-18T03:47:10.228Z,165.73
2018-04-18T03:49:39.555Z,109.53
2018-04-18T03:52:08.067Z,104.93
2018-04-18T03:54:39.553Z,96.73
2018-04-18T03:57:11.229Z,134.43
2018-04-18T03:59:42.947Z,95.87
2018-04-18T04:02:13.433Z,100.33
2018-04-18T04:04:43.584Z,98.70
2018-04-18T04:07:14.305Z,137.57
2018-04-18T04:09:44.324Z,85.83
2018-04-18T04:12:12.483Z,133.90
2018-04-18T04:14:41.254Z,121.77
2018-04-18T04:17:22.132Z,135.40
2018-04-18T04:20:05.332Z,120.33
2018-04-18T04:22:46.975Z,107.53
2018-04-18T04:25:18.730Z,113.50
2018-04-18T04:27:49.482Z,94.07
2018-04-18T04:30:21.173Z,102.53
2018-04-18T04:32:52.570Z,129.37
2018-04-18T04:35:37.200Z,121.00
2018-04-18T04:38:08.228Z,85.83
2018-04-18T04:40:41.045Z,112.97
2018-04-18T04:43:11.086Z,130.43
2018-04-18T04:45:46.955Z,108.83
2018-04-18T04:48:17.470Z,97.77
2018-04-18T04:50:47.614Z,83.73
2018-04-18T04:53:24.681Z,91.60
2018-04-18T04:55:58.687Z,96.53
2018-04-18T04:58:28.452Z,118.87
2018-04-18T05:00:57.638Z,87.10
2018-04-18T05:03:27.313Z,81.87
2018-04-18T05:05:57.693Z,88.20
2018-04-18T05:08:28.836Z,77.90
2018-04-18T05:10:58.792Z,74.53
2018-04-18T05:13:27.931Z,71.10
2018-04-18T05:16:11.313Z,83.93
2018-04-18T05:18:42.437Z,79.90
2018-04-18T05:21:16.173Z,80.10
2018-04-18T05:23:46.977Z,75.17
2018-04-18T05:26:20.177Z,69.87
2018-04-18T05:28:56.203Z,69.23
2018-04-18T05:36:51.348Z,71.10
2018-04-18T05:47:47.531Z,66.90
2018-04-18T05:50:28.177Z,58.47
2018-04-18T05:53:08.034Z,62.83
2018-04-18T05:55:40.075Z,63.57
2018-04-18T06:19:40.651Z,58.27
2018-04-18T06:22:22.592Z,52.23
2018-04-18T06:25:07.374Z,50.30
2018-04-18T06:27:46.702Z,51.27
2018-04-18T06:30:21.278Z,44.93
2018-04-18T06:32:59.644Z,50.03
2018-04-18T06:35:28.310Z,44.67
2018-04-18T06:38:03.054Z,49.57
2018-04-18T06:40:34.424Z,54.23
2018-04-18T06:43:04.920Z,43.73
2018-04-18T06:45:34.278Z,41.70
2018-04-18T06:48:03.650Z,45.70
2018-04-18T06:50:40.767Z,40.33
2018-04-18T06:53:09.492Z,44.40
2018-04-18T06:55:42.398Z,47.60
2018-04-18T06:58:12.456Z,47.13
2018-04-18T07:00:42.161Z,40.77
2018-04-18T07:03:10.085Z,38.00
2018-04-18T07:05:37.728Z,43.13
2018-04-18T07:08:05.488Z,36.43
2018-04-18T07:10:33.460Z,43.93
2018-04-18T07:13:01.369Z,41.83
2018-04-18T07:15:30.141Z,39.20
2018-04-18T07:17:58.491Z,37.67
2018-04-18T07:20:26.589Z,41.20
2018-04-18T07:22:56.483Z,37.87
2018-04-18T07:25:25.263Z,39.20
2018-04-18T07:27:53.106Z,36.37
2018-04-18T07:30:20.795Z,42.40
2018-04-18T07:32:48.701Z,36.47
2018-04-18T07:35:16.881Z,36.50
2018-04-18T07:37:45.296Z,38.37
2018-04-18T07:40:13.301Z,40.73
2018-04-18T07:42:41.756Z,36.77
2018-04-18T07:45:09.540Z,37.57
2018-04-18T07:47:37.849Z,38.90
2018-04-18T07:50:06.107Z,35.90
2018-04-18T07:52:34.750Z,34.30
2018-04-18T07:55:02.657Z,35.00
2018-04-18T07:57:31.240Z,32.33
2018-04-18T07:59:58.962Z,34.30
2018-04-18T08:02:27.972Z,34.20
2018-04-18T08:04:56.458Z,25.83
2018-04-18T08:07:25.904Z,32.60
2018-04-18T08:09:53.864Z,25.67
2018-04-18T08:12:22.366Z,19.30
2018-04-18T08:14:50.211Z,22.90
2018-04-18T08:17:17.830Z,24.40
2018-04-18T08:19:46.844Z,21.00
2018-04-18T08:22:15.724Z,25.73
2018-04-18T08:24:43.964Z,16.33
2018-04-18T08:27:11.610Z,20.10
2018-04-18T08:29:40.275Z,17.70
2018-04-18T08:32:07.933Z,20.33
2018-04-18T08:34:35.714Z,16.70
2018-04-18T08:37:03.766Z,15.97
2018-04-18T08:39:32.448Z,19.23
2018-04-18T08:42:00.098Z,16.60
2018-04-18T08:44:27.884Z,17.13
2018-04-18T08:46:56.127Z,14.57
2018-04-18T08:49:24.550Z,19.80
2018-04-18T08:51:52.527Z,14.60
2018-04-18T08:54:20.499Z,14.37
2018-04-18T08:56:48.449Z,14.43
2018-04-18T08:59:16.107Z,17.53
2018-04-18T09:01:43.993Z,16.90
2018-04-18T09:04:11.713Z,20.40
2018-04-18T09:06:40.268Z,18.07
2018-04-18T09:09:08.398Z,18.97
2018-04-18T09:11:36.308Z,17.33
2018-04-18T09:14:04.112Z,15.07
2018-04-18T09:16:32.661Z,15.17
2018-04-18T09:19:01.353Z,17.10
2018-04-18T09:21:29.230Z,20.63
2018-04-18T09:23:57.046Z,14.60
2018-04-18T09:26:24.652Z,23.80
2018-04-18T09:28:52.508Z,17.50
2018-04-18T09:31:20.508Z,17.70
2018-04-18T09:33:49.092Z,19.03
2018-04-18T09:36:17.597Z,15.80
2018-04-18T09:38:45.239Z,12.85
2018-04-18T09:41:13.717Z,13.87
2018-04-18T09:43:41.853Z,12.47
2018-04-18T09:46:10.556Z,15.85
2018-04-18T09:48:39.098Z,11.57
2018-04-18T09:51:06.601Z,14.20
2018-04-18T09:53:35.030Z,15.63
2018-04-18T09:56:03.617Z,11.50
2018-04-18T09:58:31.317Z,19.97
2018-04-18T10:00:59.150Z,10.10
2018-04-18T10:03:27.473Z,13.40
2018-04-18T10:05:56.027Z,13.13
2018-04-18T10:08:23.726Z,12.43
2018-04-18T10:10:51.491Z,10.60
2018-04-18T10:13:20.168Z,13.47
2018-04-18T10:15:48.102Z,12.03
2018-04-18T10:18:15.851Z,9.00
2018-04-18T10:20:44.356Z,19.03
2018-04-18T10:23:12.226Z,8.30
2018-04-18T10:25:39.909Z,8.73
2018-04-18T10:28:07.920Z,7.30
2018-04-18T10:30:36.225Z,7.30
2018-04-18T10:33:04.377Z,7.20
2018-04-18T10:35:33.170Z,8.47
2018-04-18T10:38:01.816Z,10.60
2018-04-18T10:40:30.876Z,6.30
2018-04-18T10:42:58.660Z,8.33
2018-04-18T10:45:26.561Z,14.27
2018-04-18T10:47:54.567Z,9.03
2018-04-18T10:50:23.237Z,10.10
2018-04-18T10:52:50.975Z,10.30
2018-04-18T10:55:18.839Z,6.07
2018-04-18T10:57:47.394Z,8.70
2018-04-18T11:00:16.165Z,9.47
2018-04-18T11:02:45.333Z,6.53
2018-04-18T11:05:13.897Z,9.00
2018-04-18T11:07:41.855Z,11.10
2018-04-18T11:10:09.697Z,11.47
2018-04-18T11:12:37.730Z,6.00
2018-04-18T11:15:05.512Z,8.43
2018-04-18T11:17:34.130Z,6.50
2018-04-18T11:20:02.243Z,6.40
2018-04-18T11:22:30.135Z,10.07
2018-04-18T11:25:00.540Z,10.37
2018-04-18T11:27:28.748Z,12.07
2018-04-18T11:29:56.565Z,8.63
2018-04-18T11:32:24.680Z,11.60
2018-04-18T11:34:54.639Z,5.67
2018-04-18T11:37:22.760Z,8.50
2018-04-18T11:39:51.179Z,9.30
2018-04-18T11:42:19.087Z,8.60
2018-04-18T11:44:46.730Z,5.90
2018-04-18T11:47:16.236Z,8.70
2018-04-18T11:49:45.349Z,7.27
2018-04-18T11:52:14.671Z,5.43
2018-04-18T11:54:42.861Z,6.60
2018-04-18T11:57:11.258Z,18.23
2018-04-18T11:59:38.835Z,6.40
2018-04-18T12:02:06.642Z,7.53
2018-04-18T12:04:34.947Z,8.27
2018-04-18T12:07:03.023Z,12.10
2018-04-18T12:09:31.795Z,12.30
2018-04-18T12:11:59.579Z,6.73
2018-04-18T12:14:28.754Z,9.83
2018-04-18T12:16:56.408Z,8.00
2018-04-18T12:19:24.175Z,10.60
2018-04-18T12:21:52.557Z,8.60
2018-04-18T12:24:20.129Z,7.63
2018-04-18T12:26:47.747Z,6.33
2018-04-18T12:29:15.272Z,6.87
2018-04-18T12:31:43.794Z,9.67
2018-04-18T12:34:11.368Z,8.70
2018-04-18T12:36:39.038Z,15.57
2018-04-18T12:39:06.970Z,9.70
2018-04-18T12:50:15.269Z,6.60
2018-04-18T12:52:46.101Z,10.70
2018-04-18T12:55:15.796Z,8.80
2018-04-18T12:57:44.380Z,7.13
2018-04-18T13:00:12.301Z,9.77
2018-04-18T13:02:41.025Z,3.70
2018-04-18T13:05:09.062Z,17.07
2018-04-18T13:07:38.364Z,8.90
2018-04-18T13:10:07.804Z,7.30
2018-04-18T13:12:37.047Z,6.33
2018-04-18T13:15:04.896Z,6.40
2018-04-18T13:17:32.603Z,7.17
2018-04-18T13:20:00.117Z,9.87
2018-04-18T13:22:28.675Z,5.27
2018-04-18T13:24:57.983Z,3.87
2018-04-18T13:27:26.949Z,6.03
2018-04-18T13:29:54.561Z,6.20
2018-04-18T13:32:22.169Z,6.10
2018-04-18T13:34:49.834Z,4.77
2018-04-18T13:37:17.836Z,6.93
2018-04-18T13:39:46.134Z,7.23
2018-04-18T13:42:13.720Z,6.20
2018-04-18T13:44:41.721Z,6.30
2018-04-18T13:47:09.364Z,7.57
2018-04-18T13:49:37.199Z,4.50
2018-04-18T13:52:04.945Z,6.83
2018-04-18T13:54:33.336Z,5.87
2018-04-18T13:57:00.943Z,5.97
2018-04-18T13:59:29.623Z,7.10
2018-04-18T14:01:58.616Z,4.27
2018-04-18T14:04:26.652Z,7.47
2018-04-18T14:06:54.624Z,7.97
2018-04-18T14:09:22.113Z,6.53
2018-04-18T14:11:49.861Z,8.07
2018-04-18T14:14:17.459Z,7.97
2018-04-18T14:16:45.283Z,7.30
2018-04-18T14:19:13.110Z,11.47
2018-04-18T14:21:40.944Z,6.57
2018-04-18T14:24:08.609Z,5.30
2018-04-18T14:26:36.226Z,7.43
2018-04-18T14:29:03.903Z,8.27
2018-04-18T14:31:31.633Z,14.00
2018-04-18T14:33:59.403Z,9.30
2018-04-18T14:36:27.811Z,5.03
2018-04-18T14:38:55.791Z,4.67
2018-04-18T14:41:23.369Z,12.33
2018-04-18T14:43:51.331Z,12.23
2018-04-18T14:46:19.769Z,6.10
2018-04-18T14:48:48.128Z,4.53
2018-04-18T14:51:15.940Z,10.33
2018-04-18T14:53:43.534Z,13.57
2018-04-18T14:56:11.216Z,8.93
2018-04-18T14:58:38.787Z,7.30
2018-04-18T15:01:06.492Z,9.13
2018-04-18T15:03:34.372Z,10.97
2018-04-18T15:06:02.608Z,5.13
2018-04-18T15:08:30.682Z,8.40
2018-04-18T15:10:59.555Z,19.23
2018-04-18T15:13:27.660Z,8.37
2018-04-18T15:15:56.139Z,8.40
2018-04-18T15:18:24.748Z,7.27
2018-04-18T15:20:53.351Z,5.63
2018-04-18T15:23:21.955Z,5.23
2018-04-18T15:25:49.517Z,7.90
2018-04-18T15:28:17.337Z,5.40
2018-04-18T15:30:45.869Z,5.73
2018-04-18T15:33:13.607Z,10.03
2018-04-18T15:35:41.653Z,5.87
2018-04-18T15:38:13.421Z,9.57
2018-04-18T15:40:41.927Z,5.53
2018-04-18T15:43:09.692Z,9.73
2018-04-18T15:45:37.285Z,4.60
2018-04-18T15:48:05.698Z,6.87
2018-04-18T15:50:34.028Z,9.60
2018-04-18T15:53:01.930Z,9.33
2018-04-18T15:55:30.247Z,13.50
2018-04-18T15:57:57.907Z,9.43
2018-04-18T16:00:25.792Z,8.47
2018-04-18T16:02:53.479Z,8.53
2018-04-18T16:05:21.282Z,10.50
2018-04-18T16:07:49.949Z,13.30
2018-04-18T16:10:17.636Z,12.47
2018-04-18T16:12:46.154Z,9.13
2018-04-18T16:15:13.824Z,14.10
2018-04-18T16:17:41.675Z,9.50
2018-04-18T16:20:10.504Z,12.03
2018-04-18T16:22:38.764Z,11.70
2018-04-18T16:25:08.930Z,9.80
2018-04-18T16:27:37.001Z,15.00
2018-04-18T16:30:05.223Z,13.00
2018-04-18T16:32:33.602Z,10.83
2018-04-18T16:35:02.186Z,19.00
2018-04-18T16:37:30.876Z,12.10
2018-04-18T16:39:58.999Z,10.10
2018-04-18T16:42:28.188Z,13.90
2018-04-18T16:44:57.706Z,14.65
2018-04-18T16:47:25.948Z,15.05
2018-04-18T16:49:54.030Z,21.90
2018-04-18T16:52:22.958Z,20.35
2018-04-18T16:54:52.007Z,18.15
2018-04-18T16:57:20.534Z,17.40
2018-04-18T16:59:49.243Z,14.85
2018-04-18T17:02:17.853Z,16.47
2018-04-18T17:04:45.829Z,11.80
2018-04-18T17:07:13.581Z,18.77
2018-04-18T17:09:42.038Z,12.73
2018-04-18T17:12:10.766Z,16.87
2018-04-18T17:14:38.658Z,15.80
2018-04-18T17:17:07.012Z,19.30
2018-04-18T17:19:34.898Z,16.17
2018-04-18T17:22:03.801Z,15.67
2018-04-18T17:24:31.542Z,17.80
2018-04-18T17:27:00.061Z,16.50
2018-04-18T17:29:29.051Z,13.53
2018-04-18T17:31:57.040Z,21.47
2018-04-18T17:34:25.153Z,18.00
2018-04-18T17:36:53.526Z,18.33
2018-04-18T17:39:21.434Z,29.80
2018-04-18T17:41:49.315Z,20.23
2018-04-18T17:44:17.970Z,21.87
2018-04-18T17:46:46.151Z,22.90
2018-04-18T17:49:14.590Z,25.77
2018-04-18T17:51:45.489Z,15.30
2018-04-18T17:54:20.986Z,15.13
2018-04-18T17:56:51.586Z,28.80
2018-04-18T17:59:22.460Z,14.87
2018-04-18T18:01:51.779Z,18.53
2018-04-18T18:04:21.565Z,20.43
2018-04-18T18:06:50.022Z,29.50
2018-04-18T18:09:19.315Z,19.50
2018-04-18T18:11:47.815Z,25.67
2018-04-18T18:14:15.907Z,18.50
2018-04-18T18:22:30.264Z,17.93
2018-04-18T18:30:38.685Z,20.37
2018-04-18T18:33:07.262Z,27.03
2018-04-18T18:35:35.705Z,31.00
2018-04-18T18:38:04.544Z,22.83
2018-04-18T18:40:35.448Z,22.90
2018-04-18T18:43:03.899Z,21.23
2018-04-18T18:45:37.538Z,21.70
2018-04-18T18:48:05.863Z,24.53
2018-04-18T19:02:06.687Z,20.73
2018-04-18T19:04:34.922Z,26.33
2018-04-18T19:07:03.667Z,23.10
2018-04-18T19:09:31.265Z,28.67
2018-04-18T19:11:58.908Z,25.57
2018-04-18T19:14:28.112Z,25.57
2018-04-18T19:16:56.709Z,17.90
2018-04-18T19:19:25.403Z,26.17
2018-04-18T19:21:54.091Z,20.40
2018-04-18T19:24:22.148Z,18.33
2018-04-18T19:26:50.847Z,24.23
2018-04-18T19:29:19.615Z,25.60
2018-04-18T19:31:47.989Z,20.83
2018-04-18T19:34:17.151Z,28.03
2018-04-18T19:36:45.093Z,26.60
2018-04-18T19:39:13.563Z,26.60
2018-04-18T19:41:41.960Z,21.33
2018-04-18T19:44:10.165Z,19.70
2018-04-18T19:46:39.177Z,20.00
2018-04-18T19:49:07.968Z,21.70
2018-04-18T19:51:35.961Z,20.23
2018-04-18T19:54:04.769Z,23.77
2018-04-18T19:56:32.977Z,22.83
2018-04-18T19:59:01.210Z,27.97
2018-04-18T20:01:29.637Z,27.00
2018-04-18T20:03:58.161Z,21.03
2018-04-18T20:06:26.623Z,21.27
2018-04-18T20:08:55.585Z,22.63
2018-04-18T20:11:24.030Z,23.37
2018-04-18T20:13:54.093Z,19.30
2018-04-18T20:16:23.895Z,30.07
2018-04-18T20:18:53.400Z,32.33
2018-04-18T20:21:22.944Z,23.07
2018-04-18T20:23:51.755Z,27.23
2018-04-18T20:26:20.218Z,19.80
2018-04-18T20:28:48.709Z,24.23
2018-04-18T20:31:17.009Z,20.70
2018-04-18T20:33:45.191Z,21.50
2018-04-18T20:36:14.049Z,28.27
2018-04-18T20:38:43.069Z,23.93
2018-04-18T20:41:11.765Z,24.53
2018-04-18T20:43:40.257Z,17.33
2018-04-18T20:46:08.717Z,21.40
2018-04-18T20:48:36.971Z,21.13
2018-04-18T20:51:05.958Z,29.63
2018-04-18T20:53:35.179Z,19.30
2018-04-18T20:56:03.897Z,20.43
2018-04-18T20:58:33.484Z,24.33
2018-04-18T21:01:02.452Z,26.57
2018-04-18T21:03:31.499Z,27.73
2018-04-18T21:05:59.672Z,36.87
2018-04-18T21:08:28.638Z,37.30
2018-04-18T21:10:57.817Z,26.70
2018-04-18T21:13:26.214Z,25.23
2018-04-18T21:15:54.450Z,23.37
2018-04-18T21:18:22.944Z,26.50
2018-04-18T21:20:50.905Z,26.33
2018-04-18T21:23:19.334Z,26.73
2018-04-18T21:25:47.663Z,25.83
2018-04-18T21:28:16.168Z,22.03
2018-04-18T21:30:44.061Z,18.87
2018-04-18T21:33:12.636Z,28.50
2018-04-18T21:35:40.418Z,24.17
2018-04-18T21:38:08.190Z,22.40
2018-04-18T21:40:37.904Z,27.03
2018-04-18T21:43:05.741Z,32.07
2018-04-18T21:45:34.505Z,38.07
2018-04-18T21:48:03.120Z,29.83
2018-04-18T21:50:32.659Z,27.20
2018-04-18T21:53:05.546Z,22.43
2018-04-18T21:55:36.002Z,27.00
2018-04-18T21:58:05.627Z,34.70
2018-04-18T22:00:34.414Z,33.77
2018-04-18T22:03:03.351Z,19.70
2018-04-18T22:05:31.211Z,17.63
2018-04-18T22:07:59.701Z,21.27
2018-04-18T22:10:29.029Z,21.20
2018-04-18T22:12:58.963Z,19.97
2018-04-18T22:15:27.807Z,25.10
2018-04-18T22:17:56.590Z,19.57
2018-04-18T22:20:25.188Z,20.43
2018-04-18T22:22:52.795Z,15.40
2018-04-18T22:25:26.630Z,17.63
2018-04-18T22:27:55.856Z,18.97
2018-04-18T22:30:24.299Z,28.60
2018-04-18T22:33:13.177Z,21.90
2018-04-18T22:35:41.199Z,26.30
2018-04-18T22:38:08.831Z,23.00
2018-04-18T22:40:37.623Z,18.40
2018-04-18T22:43:05.858Z,29.63
2018-04-18T22:45:34.943Z,28.10
2018-04-18T22:48:03.660Z,20.50
2018-04-18T22:50:33.503Z,26.60
2018-04-18T22:53:02.106Z,23.73
2018-04-18T22:58:04.225Z,24.60
2018-04-18T23:00:33.754Z,23.40
2018-04-18T23:03:01.641Z,18.87
2018-04-18T23:05:29.810Z,25.63
2018-04-18T23:10:50.760Z,22.67
2018-04-18T23:13:19.155Z,20.33
2018-04-18T23:15:53.218Z,20.07
2018-04-18T23:18:21.391Z,20.67
2018-04-18T23:20:49.549Z,21.50
2018-04-18T23:23:18.411Z,25.77
2018-04-18T23:26:02.206Z,21.30
2018-04-18T23:28:29.945Z,23.10
2018-04-18T23:30:57.745Z,23.97
2018-04-18T23:33:26.909Z,18.60
2018-04-18T23:35:55.105Z,18.63
2018-04-18T23:38:22.917Z,17.40
2018-04-18T23:40:50.787Z,24.07
2018-04-18T23:43:45.041Z,25.03
2018-04-18T23:46:13.443Z,24.53
2018-04-18T23:48:42.286Z,24.80
2018-04-18T23:51:11.526Z,22.17
2018-04-18T23:53:40.674Z,17.83
2018-04-18T23:56:17.583Z,20.50
2018-04-18T23:58:47.403Z,27.33
